createdAt,value
2023-06-22T00:00:23.213Z,100765.80
2023-06-22T00:05:47.982Z,100754.60
2023-06-22T00:10:50.762Z,100752.20
2023-06-22T00:15:55.672Z,100749.60
2023-06-22T00:20:59.564Z,100749.20
2023-06-22T00:26:04.022Z,100753.00
2023-06-22T00:31:06.971Z,100762.80
2023-06-22T00:36:09.773Z,100761.20
2023-06-22T00:41:15.194Z,100767.20
2023-06-22T00:46:20.795Z,100771.20
2023-06-22T00:51:25.532Z,100761.20
2023-06-22T00:56:33.907Z,100774.80
2023-06-22T01:01:44.135Z,100776.00
2023-06-22T01:07:24.185Z,100778.40
2023-06-22T01:12:35.973Z,100777.80
2023-06-22T01:17:44.061Z,100779.60
2023-06-22T01:23:36.305Z,100779.20
2023-06-22T01:28:51.180Z,100781.20
2023-06-22T01:33:59.260Z,100783.40
2023-06-22T01:39:06.424Z,100773.60
2023-06-22T01:44:12.555Z,100771.00
2023-06-22T01:49:16.336Z,100773.80
2023-06-22T01:54:21.402Z,100776.40
2023-06-22T01:59:42.646Z,100772.20
2023-06-22T02:05:11.647Z,100770.20
2023-06-22T02:10:21.005Z,100768.60
2023-06-22T02:15:26.785Z,100774.00
2023-06-22T02:20:30.220Z,100772.20
2023-06-22T02:25:34.196Z,100766.80
2023-06-22T02:30:36.984Z,100777.60
2023-06-22T02:35:40.879Z,100783.00
2023-06-22T02:40:47.910Z,100795.40
2023-06-22T02:45:51.781Z,100796.80
2023-06-22T02:50:54.530Z,100796.40
2023-06-22T02:55:57.431Z,100791.00
2023-06-22T03:01:05.907Z,100787.60
2023-06-22T03:06:15.359Z,100788.60
2023-06-22T03:11:18.320Z,100769.80
2023-06-22T03:16:22.640Z,100767.60
2023-06-22T03:21:30.109Z,100761.60
2023-06-22T03:26:33.217Z,100764.00
2023-06-22T03:31:37.199Z,100771.80
2023-06-22T03:36:46.606Z,100780.60
2023-06-22T03:41:52.720Z,100779.00
2023-06-22T03:46:55.356Z,100776.20
2023-06-22T03:52:00.608Z,100782.60
2023-06-22T03:57:08.347Z,100775.00
2023-06-22T04:02:11.100Z,100772.60
2023-06-22T04:07:14.121Z,100774.00
2023-06-22T04:12:19.023Z,100777.60
2023-06-22T04:17:21.985Z,100791.40
2023-06-22T04:22:24.639Z,100801.40
2023-06-22T04:27:27.893Z,100804.00
2023-06-22T04:32:30.637Z,100809.00
2023-06-22T04:37:34.920Z,100821.40
2023-06-22T04:42:40.728Z,100831.00
2023-06-22T04:47:44.036Z,100828.00
2023-06-22T04:52:51.612Z,100845.00
2023-06-22T04:57:56.722Z,100843.80
2023-06-22T05:03:14.889Z,100820.60
2023-06-22T05:08:29.948Z,100825.00
2023-06-22T05:13:33.239Z,100865.60
2023-06-22T05:18:40.467Z,100863.00
2023-06-22T05:24:09.295Z,100867.40
2023-06-22T05:29:11.991Z,100880.00
2023-06-22T05:34:20.590Z,100890.00
2023-06-22T05:39:24.688Z,100882.00
2023-06-22T05:44:27.382Z,100894.60
2023-06-22T05:49:33.736Z,100893.60
2023-06-22T05:54:39.614Z,100891.60
2023-06-22T05:59:42.379Z,100910.20
2023-06-22T06:04:47.092Z,100914.00
2023-06-22T06:09:51.064Z,100930.20
2023-06-22T06:14:57.698Z,100924.40
2023-06-22T06:20:03.601Z,100934.40
2023-06-22T06:25:08.350Z,100936.00
2023-06-22T06:30:15.997Z,100938.80
2023-06-22T06:35:25.318Z,100933.80
2023-06-22T06:40:31.087Z,100940.60
2023-06-22T06:45:35.921Z,100952.00
2023-06-22T06:50:41.808Z,100937.60
2023-06-22T06:55:49.287Z,100926.00
2023-06-22T07:00:52.174Z,100880.40
2023-06-22T07:05:57.616Z,100915.20
2023-06-22T07:11:02.134Z,100928.60
2023-06-22T07:16:06.753Z,100930.60
2023-06-22T07:21:09.537Z,100929.40
2023-06-22T07:26:13.824Z,100927.20
2023-06-22T07:31:18.960Z,100935.20
2023-06-22T07:36:24.249Z,100948.00
2023-06-22T07:41:27.146Z,100958.60
2023-06-22T07:46:33.111Z,100968.00
2023-06-22T07:51:36.223Z,100974.00
2023-06-22T07:56:44.629Z,100981.80
2023-06-22T08:01:50.493Z,100981.20
2023-06-22T08:06:53.409Z,100986.60
2023-06-22T08:11:57.770Z,100983.20
2023-06-22T08:17:00.532Z,100993.20
2023-06-22T08:22:03.480Z,101012.20
2023-06-22T08:27:15.813Z,101012.40
2023-06-22T08:32:18.926Z,101017.00
2023-06-22T08:37:24.839Z,101014.20
2023-06-22T08:42:28.396Z,101012.60
2023-06-22T08:47:31.586Z,101021.60
2023-06-22T08:52:35.864Z,101020.20
2023-06-22T08:57:40.471Z,101018.80
2023-06-22T09:02:50.238Z,101006.00
2023-06-22T09:08:01.191Z,100977.80
2023-06-22T09:13:06.750Z,100970.20
2023-06-22T09:18:12.849Z,100966.40
2023-06-22T09:23:15.938Z,100959.60
2023-06-22T09:28:22.954Z,100965.20
2023-06-22T09:33:27.746Z,100976.40
2023-06-22T09:38:30.548Z,100959.00
2023-06-22T09:43:37.269Z,100958.20
2023-06-22T09:48:43.242Z,100968.40
2023-06-22T09:53:46.118Z,100958.20
2023-06-22T09:58:52.089Z,100960.20
2023-06-22T10:04:03.930Z,100966.60
2023-06-22T10:09:07.715Z,100981.20
2023-06-22T10:14:11.682Z,100960.00
2023-06-22T10:19:14.588Z,100964.80
2023-06-22T10:24:17.463Z,100964.20
2023-06-22T10:29:22.115Z,100966.40
2023-06-22T10:34:24.799Z,100975.00
2023-06-22T10:39:27.521Z,100986.00
2023-06-22T10:44:30.227Z,100981.40
2023-06-22T10:49:35.409Z,100979.20
2023-06-22T10:54:39.895Z,100985.40
2023-06-22T10:59:45.365Z,100980.20
2023-06-22T11:04:51.171Z,100983.60
2023-06-22T11:09:54.140Z,100976.40
2023-06-22T11:23:15.387Z,100972.40
2023-06-22T11:28:33.075Z,100978.40
2023-06-22T11:34:14.929Z,100972.60
2023-06-22T11:40:06.283Z,100974.80
2023-06-22T11:45:42.654Z,100967.20
2023-06-22T12:08:10.166Z,100969.60
2023-06-22T12:13:41.340Z,100971.20
2023-06-22T12:18:44.045Z,100972.20
2023-06-22T12:25:15.496Z,100972.20
2023-06-22T12:30:52.434Z,100967.40
2023-06-22T12:35:57.271Z,100966.20
2023-06-22T12:43:53.134Z,100966.00
2023-06-22T12:46:38.780Z,100970.00
2023-06-22T12:51:43.719Z,100963.80
2023-06-22T12:56:46.730Z,100961.80
2023-06-22T13:01:52.406Z,100952.60
2023-06-22T13:06:55.311Z,100959.20
2023-06-22T13:12:00.987Z,100946.20
2023-06-22T13:17:03.939Z,100946.60
2023-06-22T13:22:31.723Z,100941.80
2023-06-22T13:27:34.506Z,100947.60
2023-06-22T13:32:37.538Z,100945.80
2023-06-22T13:37:42.447Z,100941.80
2023-06-22T13:42:46.422Z,100943.60
2023-06-22T13:47:49.167Z,100939.80
2023-06-22T13:52:54.186Z,100938.00
2023-06-22T13:57:56.876Z,100928.80
2023-06-22T14:02:59.593Z,100932.20
2023-06-22T14:08:03.951Z,100939.60
2023-06-22T14:13:08.154Z,100940.20
2023-06-22T14:18:16.206Z,100932.20
2023-06-22T14:23:19.020Z,100931.40
2023-06-22T14:28:22.161Z,100925.80
2023-06-22T14:33:24.864Z,100922.40
2023-06-22T14:38:28.683Z,100924.60
2023-06-22T14:43:32.752Z,100920.20
2023-06-22T14:48:35.572Z,100914.20
2023-06-22T14:53:39.602Z,100913.60
2023-06-22T14:58:48.293Z,100911.40
2023-06-22T15:03:52.197Z,100911.00
2023-06-22T15:08:55.185Z,100908.80
2023-06-22T15:14:00.057Z,100902.40
2023-06-22T15:19:03.147Z,100906.40
2023-06-22T15:24:06.078Z,100903.60
2023-06-22T15:29:14.970Z,100909.80
2023-06-22T15:34:22.404Z,100900.40
2023-06-22T15:39:35.006Z,100904.20
2023-06-22T15:44:37.869Z,100895.60
2023-06-22T15:49:40.575Z,100903.00
2023-06-22T15:54:47.113Z,100894.80
2023-06-22T15:59:51.596Z,100894.60
2023-06-22T16:04:59.864Z,100897.00
2023-06-22T16:10:05.443Z,100894.60
2023-06-22T16:15:09.064Z,100885.20
2023-06-22T16:20:27.205Z,100886.20
2023-06-22T16:25:32.462Z,100884.80
2023-06-22T16:30:35.423Z,100876.40
2023-06-22T16:35:40.138Z,100876.40
2023-06-22T16:40:42.920Z,100882.80
2023-06-22T16:45:45.629Z,100886.60
2023-06-22T16:50:48.320Z,100876.60
2023-06-22T16:55:56.039Z,100875.20
2023-06-22T17:01:00.492Z,100868.20
2023-06-22T17:06:04.449Z,100863.80
2023-06-22T17:11:09.645Z,100855.40
2023-06-22T17:16:13.271Z,100865.20
2023-06-22T17:21:23.901Z,100856.80
2023-06-22T17:26:29.064Z,100856.20
2023-06-22T17:31:44.547Z,100851.40
2023-06-22T17:36:52.970Z,100840.40
2023-06-22T17:41:55.927Z,100835.00
2023-06-22T17:47:00.049Z,100825.40
2023-06-22T17:52:02.938Z,100822.20
2023-06-22T17:57:17.324Z,100815.60
2023-06-22T18:02:26.687Z,100817.00
2023-06-22T18:07:33.401Z,100806.00
2023-06-22T18:12:44.700Z,100802.60
2023-06-22T18:17:52.068Z,100803.60
2023-06-22T18:23:01.598Z,100800.00
2023-06-22T18:28:10.691Z,100799.60
2023-06-22T18:33:13.773Z,100791.60
2023-06-22T18:38:17.173Z,100793.60
2023-06-22T18:43:27.039Z,100804.20
2023-06-22T18:48:29.667Z,100805.40
2023-06-22T18:53:32.478Z,100803.20
2023-06-22T18:58:35.283Z,100797.60
2023-06-22T19:03:43.217Z,100799.40
2023-06-22T19:09:15.598Z,100796.60
2023-06-22T19:14:22.856Z,100800.40
2023-06-22T19:19:25.631Z,100812.80
2023-06-22T19:24:47.989Z,100813.40
2023-06-22T19:29:55.317Z,100824.80
2023-06-22T19:35:00.339Z,100825.00
2023-06-22T19:40:07.192Z,100824.80
2023-06-22T19:45:16.466Z,100832.80
2023-06-22T19:50:19.315Z,100830.80
2023-06-22T19:55:23.641Z,100831.20
2023-06-22T20:00:26.759Z,100850.40
2023-06-22T20:05:29.909Z,100844.60
2023-06-22T20:10:39.477Z,100834.00
2023-06-22T20:15:48.091Z,100831.20
2023-06-22T20:20:53.420Z,100823.00
2023-06-22T20:25:59.026Z,100819.00
2023-06-22T20:31:12.684Z,100819.20
2023-06-22T20:36:17.786Z,100826.40
2023-06-22T20:41:20.727Z,100802.00
2023-06-22T20:46:25.951Z,100788.40
2023-06-22T20:51:28.856Z,100792.60
2023-06-22T20:56:34.098Z,100799.20
2023-06-22T21:01:37.110Z,100775.40
2023-06-22T21:06:40.129Z,100773.40
2023-06-22T21:11:42.884Z,100771.40
2023-06-22T21:16:48.938Z,100784.40
2023-06-22T21:21:52.131Z,100784.00
2023-06-22T21:26:55.080Z,100791.20
2023-06-22T21:31:58.045Z,100801.60
2023-06-22T21:37:01.164Z,100802.60
2023-06-22T21:42:07.124Z,100798.80
2023-06-22T21:47:10.563Z,100804.40
2023-06-22T21:52:15.748Z,100796.60
2023-06-22T21:57:23.095Z,100789.40
2023-06-22T22:02:26.978Z,100787.80
2023-06-22T22:07:31.478Z,100788.60
2023-06-22T22:12:35.706Z,100792.20
2023-06-22T22:17:38.611Z,100792.00
2023-06-22T22:22:41.744Z,100808.20
2023-06-22T22:27:46.837Z,100810.40
2023-06-22T22:32:50.028Z,100807.40
2023-06-22T22:37:55.372Z,100792.40
2023-06-22T22:43:00.333Z,100790.80
2023-06-22T22:48:05.911Z,100783.00
2023-06-22T22:53:11.450Z,100781.40
2023-06-22T22:58:16.998Z,100790.40
2023-06-22T23:03:19.897Z,100787.40
2023-06-22T23:08:24.495Z,100790.60
2023-06-22T23:13:28.488Z,100793.20
2023-06-22T23:18:32.788Z,100789.00
2023-06-22T23:23:37.536Z,100793.20
2023-06-22T23:28:46.022Z,100790.80
2023-06-22T23:33:49.307Z,100790.60
2023-06-22T23:38:54.579Z,100778.20
2023-06-22T23:43:57.768Z,100772.60
2023-06-22T23:49:03.365Z,100765.20
2023-06-22T23:54:06.250Z,100769.60
2023-06-22T23:59:09.654Z,100759.40
